Flight Track Log - Related Links

Times and Time Zones

All times are in EDT time to prevent confusion due to time zone crossing. See the CTL13 flight status page for this flight to view local times or setup timezone preferences in your user account.

Time Position Orientation Groundspeed Altitude Reporting Facility
EDT Latitude Longitude Course Direction KTS MPH feet Rate Location/Type
Wed 06:50:14 PM 41.5233 -81.6758 323° Northwest 117 135 1,000  Level Cleveland Center
Wed 06:51:33 PM 41.5625 -81.7153 323° Northwest 168 193 2,200 986 Climbing Cleveland Center
Wed 06:52:34 PM 41.5933 -81.7631 311° West 156 180 3,300 806 Climbing Cleveland Center
Wed 06:53:47 PM 41.6008 -81.8244 279° West 150 173 4,000 313 Climbing Cleveland Center
Wed 06:54:48 PM 41.5961 -81.8881 264° West 166 191 4,000  Level Cleveland Center
Wed 06:55:36 PM 41.5914 -81.9353 262° West 166 191 4,000 165 Level Cleveland Center
Wed 06:56:37 PM 41.5742 -81.9875 246° West 148 170 4,300 358 Climbing Cleveland Center
Wed 06:57:50 PM 41.5525 -82.0453 243° Southwest 141 162 4,800 448 Climbing Cleveland Center
Wed 06:58:51 PM 41.5331 -82.0894 240° Southwest 136 157 5,300 470 Climbing Cleveland Center
Wed 06:59:45 PM 41.5139 -82.1306 238° Southwest 138 159 5,700 417 Climbing Cleveland Center
Wed 07:00:46 PM 41.4967 -82.1744 242° Southwest 133 153 6,100 347 Climbing Cleveland Center
Wed 07:01:46 PM 41.4772 -82.2183 239° Southwest 132 152 6,400 81 Climbing Cleveland Center
Wed 07:03:00 PM 41.4524 -82.2842 243° Southwest  Level Estimated
Wed 07:10:00 PM 41.3106 -82.6572 243° Southwest  Level Estimated
Wed 07:11:00 PM 41.2903 -82.7104 243° Southwest  Level Estimated
Wed 07:12:00 PM 41.2699 -82.7635 243° Southwest  Level Estimated
Wed 07:13:00 PM 41.2495 -82.8166 243° Southwest  Level Estimated
Wed 07:14:00 PM 41.2291 -82.8697 243° Southwest  Level Estimated
Wed 07:15:00 PM 41.2086 -82.9227 243° Southwest  Level Estimated
Wed 07:16:00 PM 41.1882 -82.9757 243° Southwest  Level Estimated
Wed 07:17:00 PM 41.1677 -83.0286 243° Southwest  Level Estimated
Wed 07:18:00 PM 41.1471 -83.0816 243° Southwest  Level Estimated
Wed 07:19:00 PM 41.1266 -83.1345 243° Southwest  Level Estimated
Wed 07:20:00 PM 41.1060 -83.1873 243° Southwest  Level Estimated
Wed 07:21:00 PM 41.0854 -83.2401 243° Southwest  Level Estimated
Wed 07:22:00 PM 41.0648 -83.2929 243° Southwest  Level Estimated
Wed 07:23:00 PM 41.0442 -83.3457 243° Southwest  Level Estimated
Wed 07:24:00 PM 41.0235 -83.3984 243° Southwest  Level Estimated
Wed 07:24:14 PM 41.0667 -83.1822 242° Southwest 136 157 8,000  Level Indianapolis Center
Wed 07:25:00 PM 41.0028 -83.4511 243° Southwest  Level Estimated
Wed 07:25:16 PM 41.0469 -83.2250 239° Southwest 136 157 7,900  Level Indianapolis Center
Wed 07:26:00 PM 40.9821 -83.5038 242° Southwest  Level Estimated
Wed 07:26:17 PM 41.0275 -83.2731 242° Southwest 143 165 7,300  Level Indianapolis Center
Wed 07:27:00 PM 40.9614 -83.5564 242° Southwest  Level Estimated
Wed 07:27:19 PM 41.0044 -83.3239 239° Southwest 157 181 6,600  Level Indianapolis Center
Wed 07:28:00 PM 40.9407 -83.6090 242° Southwest  Level Estimated
Wed 07:28:20 PM 40.9794 -83.3858 242° Southwest 161 185 6,000  Level Indianapolis Center
Wed 07:29:00 PM 40.9199 -83.6615 242° Southwest  Level Estimated
Wed 07:29:22 PM 40.9586 -83.4331 240° Southwest 152 175 6,000  Level Indianapolis Center
Wed 07:30:23 PM 40.9386 -83.4778 239° Southwest 143 165 6,000 -49 Level Indianapolis Center
Wed 07:31:25 PM 40.9189 -83.5219 239° Southwest 138 159 5,900 -48 Descending Indianapolis Center
Wed 07:32:27 PM 40.8986 -83.5658 239° Southwest 138 159 5,900 49 Level Indianapolis Center
Wed 07:33:28 PM 40.8792 -83.6097 240° Southwest 138 159 6,000 49 Climbing Indianapolis Center
Wed 07:34:30 PM 40.8583 -83.6531 238° Southwest 139 160 6,000  Level Indianapolis Center
Wed 07:35:32 PM 40.8383 -83.6967 239° Southwest 138 159 6,000  Level Indianapolis Center
Wed 07:36:33 PM 40.8181 -83.7397 238° Southwest 138 159 6,000  Level Indianapolis Center
Wed 07:37:35 PM 40.7975 -83.7831 238° Southwest 138 159 6,000  Level Indianapolis Center
Wed 07:38:36 PM 40.7761 -83.8267 237° Southwest 139 160 6,000  Level Indianapolis Center
Wed 07:39:38 PM 40.7528 -83.8781 239° Southwest 139 160 6,000  Level Indianapolis Center
Wed 07:40:40 PM 40.7322 -83.9214 238° Southwest 139 160 6,000  Level Indianapolis Center
Wed 07:41:41 PM 40.7142 -83.9658 242° Southwest 137 158 6,000  Level Indianapolis Center
Wed 07:42:43 PM 40.6972 -84.0122 244° Southwest 139 160 6,000  Level Indianapolis Center
Wed 07:43:44 PM 40.6808 -84.0589 245° Southwest 138 159 6,000  Level Indianapolis Center
Wed 07:44:12 PM 40.6717 -84.0844 245° Southwest 138 159 6,000  Level Indianapolis Center
Wed 07:44:46 PM 40.6650 -84.1042 246° West 138 159 6,000  Level Indianapolis Center
Wed 07:45:31 PM 40.6503 -84.1422 243° Southwest 137 158 6,000  Level Indianapolis Center
Wed 07:45:47 PM 40.6494 -84.1489 261° West 136 157 6,000  Level Indianapolis Center
Wed 07:46:38 PM 40.6322 -84.1892 241° Southwest 136 157 6,000  Level Indianapolis Center
Wed 07:47:39 PM 40.6139 -84.2336 241° Southwest 137 158 6,000  Level Indianapolis Center
Wed 07:48:34 PM 40.5942 -84.2722 236° Southwest 137 158 6,000  Level Indianapolis Center
Wed 07:48:52 PM 40.5914 -84.2806 246° West 137 158 6,000  Level Indianapolis Center
Wed 07:49:34 PM 40.5722 -84.3103 230° Southwest 134 154 6,000  Level Indianapolis Center
Wed 07:49:54 PM 40.5636 -84.3258 234° Southwest 136 157 6,000  Level Indianapolis Center
Wed 07:50:35 PM 40.5458 -84.3536 230° Southwest 135 155 6,000  Level Indianapolis Center
Wed 07:50:55 PM 40.5406 -84.3650 239° Southwest 135 155 6,000  Level Indianapolis Center
Wed 07:51:36 PM 40.5239 -84.3917 231° Southwest 136 157 6,000  Level Indianapolis Center
Wed 07:51:57 PM 40.5178 -84.4050 239° Southwest 135 155 6,000  Level Indianapolis Center
Wed 07:52:37 PM 40.5019 -84.4300 230° Southwest 133 153 6,000  Level Indianapolis Center
Wed 07:52:58 PM 40.4956 -84.4439 239° Southwest 134 154 6,000  Level Indianapolis Center
Wed 07:53:37 PM 40.4800 -84.4708 233° Southwest 131 151 6,000 97 Level Indianapolis Center
Wed 07:54:00 PM 40.4731 -84.4831 233° Southwest 134 154 6,100 98 Climbing Indianapolis Center
Wed 07:54:38 PM 40.4581 -84.5089 233° Southwest 133 153 6,100 -98 Level Indianapolis Center
Wed 07:55:01 PM 40.4508 -84.5222 235° Southwest 133 153 6,000 -98 Descending Indianapolis Center
Wed 07:55:39 PM 40.4361 -84.5469 232° Southwest 134 154 6,000  Level Indianapolis Center
Wed 07:56:03 PM 40.4281 -84.5606 232° Southwest 133 153 6,000  Level Indianapolis Center
Wed 07:56:39 PM 40.4117 -84.5875 231° Southwest 134 154 6,000  Level Indianapolis Center
Wed 07:57:04 PM 40.4056 -84.5975 231° Southwest 131 151 6,000  Level Indianapolis Center
Wed 07:57:40 PM 40.3894 -84.6283 236° Southwest 134 154 6,000 97 Level Indianapolis Center
Wed 07:58:06 PM 40.3836 -84.6381 232° Southwest 133 153 6,100  Climbing Indianapolis Center
Wed 07:58:41 PM 40.3675 -84.6664 233° Southwest 131 151 6,000 -97 Descending Indianapolis Center
Wed 07:59:08 PM 40.3608 -84.6772 231° Southwest 133 153 6,000  Level Indianapolis Center
Wed 07:59:42 PM 40.3436 -84.7014 227° Southwest 133 153 6,000  Level Indianapolis Center
Wed 08:00:09 PM 40.3344 -84.7214 239° Southwest 132 152 6,000  Level Indianapolis Center
Wed 08:00:42 PM 40.3214 -84.7419 230° Southwest 136 157 6,000  Level Indianapolis Center
Wed 08:01:11 PM 40.3114 -84.7617 236° Southwest 134 154 6,000  Level Indianapolis Center
Wed 08:01:43 PM 40.2992 -84.7828 233° Southwest 137 158 6,000  Level Indianapolis Center
Wed 08:02:12 PM 40.2881 -84.8025 234° Southwest 136 157 6,000  Level Indianapolis Center
Wed 08:02:44 PM 40.2747 -84.8258 233° Southwest 136 157 6,000  Level Indianapolis Center
Wed 08:03:14 PM 40.2656 -84.8433 236° Southwest 137 158 6,000  Level Indianapolis Center
Wed 08:03:44 PM 40.2525 -84.8636 230° Southwest 135 155 6,000  Level Indianapolis Center
Wed 08:04:15 PM 40.2425 -84.8814 234° Southwest 136 157 6,000  Level Indianapolis Center
Wed 08:04:45 PM 40.2303 -84.9042 235° Southwest 138 159 6,000  Level Indianapolis Center
Wed 08:05:16 PM 40.2189 -84.9225 231° Southwest 136 157 6,000  Level Indianapolis Center
Wed 08:05:46 PM 40.2058 -84.9444 232° Southwest 138 159 6,000  Level Indianapolis Center
Wed 08:06:18 PM 40.1947 -84.9636 233° Southwest 139 160 6,000 100 Level Indianapolis Center
Wed 08:06:46 PM 40.1836 -84.9850 236° Southwest 137 158 6,100 98 Climbing Indianapolis Center
Wed 08:07:19 PM 40.1717 -85.0033 230° Southwest 138 159 6,100  Level Indianapolis Center
Wed 08:07:47 PM 40.1614 -85.0228 235° Southwest 134 154 6,100  Level Indianapolis Center
Wed 08:08:21 PM 40.1494 -85.0442 234° Southwest 138 159 6,100  Level Indianapolis Center
Wed 08:09:22 PM 40.1258 -85.0814 230° Southwest 135 155 6,100 69 Level Indianapolis Center
Wed 08:09:48 PM 40.1056 -85.0883 195° South 135 155 6,200  Climbing Indianapolis Center
Wed 08:10:24 PM 40.0889 -85.0944 196° South 138 159 6,100 -98 Descending Indianapolis Center
Wed 08:10:49 PM 40.0686 -85.1022 196° South 136 157 6,100  Level Indianapolis Center
Wed 08:11:25 PM 40.0467 -85.1092 194° South 136 157 6,100 61 Level Indianapolis Center
Wed 08:12:27 PM 40.0161 -85.1317 209° Southwest 140 161 6,200  Climbing Indianapolis Center
Wed 08:13:28 PM 40.0094 -85.1819 260° West 140 161 6,100 -49 Descending Indianapolis Center
Wed 08:14:30 PM 40.0025 -85.2322 260° West 141 162 6,100 -49 Level Indianapolis Center
Wed 08:15:31 PM 39.9969 -85.2819 262° West 139 160 6,000 -246 Descending Indianapolis Center
Wed 08:16:32 PM 39.9886 -85.3336 258° West 141 162 5,600 -488 Descending Indianapolis Center
Wed 08:17:34 PM 39.9808 -85.3917 260° West 152 175 5,000 -390 Descending Indianapolis Center
Wed 08:18:35 PM 39.9731 -85.4453 259° West 153 176 4,800 -390 Descending Indianapolis Center
Wed 08:20:08 PM 39.9500 -85.5333 251° West 148 170 4,000 -314 Descending Indianapolis TRACON
Wed 08:21:08 PM 39.9500 -85.5833 270° West 139 160 4,000  Level Indianapolis TRACON
Wed 08:22:14 PM 39.9333 -85.6333 247° West 136 157 4,000  Level Indianapolis TRACON
Wed 08:23:14 PM 39.9333 -85.6833 270° West 133 153 4,000 -50 Level Indianapolis TRACON
Wed 08:24:14 PM 39.9333 -85.7333 270° West 133 153 3,900  Descending Indianapolis TRACON
Wed 08:25:14 PM 39.9167 -85.7667 237° Southwest 132 152 4,000  Climbing Indianapolis TRACON
Wed 08:26:14 PM 39.9167 -85.8167 270° West 131 151 3,900 -368 Descending Indianapolis TRACON
Wed 08:27:08 PM 39.9000 -85.8667 247° West 146 168 3,300 -632 Descending Indianapolis TRACON
Wed 08:28:08 PM 39.8833 -85.9167 247° West 154 177 2,700 -600 Descending Indianapolis TRACON
Wed 08:30:00 PM 39.8833 -86.0081 270° West  Level FlightAware Approximate
Wed 08:37:00 PM 39.8308 -86.2944 251° West  Level Estimated
Wed 08:38:00 PM 39.8308 -86.2944 57° Northeast  Level Estimated
Wed 08:39:00 PM 39.8308 -86.2944 90° East  Level Estimated

Login

Don't have an account? Register now (free) for customized features, flight alerts, and more!